X  Tanca Dades meteorològiques de l'aviació METAR        LGTS Thessaloniki Macedonia International
Temperatura
55°F Temperatura
55°F Rosada
100% Humitat



Vent
6 MPH
9 KM/H
3 M/S
5 NUS



120°
ESE
Condicions actuals

Mostly Cloudy with Light Rain Força ennuvolat , llum Pluja
Pressió 1011 (hPa) - 29.85 (inHg)
Visibilitat 5 (milla) - 8 (km)
Aeroport
Codi aeroport LGTS

Ubicació: Thessaloniki Macedonia International
Distància: 85 (mi)

Metar:
METAR LGTS 011620Z 12005KT 8000 -RA SCT008 BKN030 13/13 Q1011 NOSIG

Temps: 01-03-2024 18:20 EET